sensor_id;sensor_type;location;lat;lon;timestamp;pressure;altitude;pressure_sealevel;temperature;humidity
55291;BME280;41155;39.768;2.712;2023-05-10T00:00:10;101402.09;;;20.42;73.48
55291;BME280;41155;39.768;2.712;2023-05-10T00:02:35;101389.19;;;20.42;73.23
55291;BME280;41155;39.768;2.712;2023-05-10T00:05:01;101392.88;;;20.38;73.95
55291;BME280;41155;39.768;2.712;2023-05-10T00:07:27;101390.03;;;20.43;73.86
55291;BME280;41155;39.768;2.712;2023-05-10T00:09:52;101386.59;;;20.51;73.47
55291;BME280;41155;39.768;2.712;2023-05-10T00:12:18;101368.00;;;20.48;74.16
55291;BME280;41155;39.768;2.712;2023-05-10T00:14:43;101369.03;;;20.52;73.37
55291;BME280;41155;39.768;2.712;2023-05-10T00:17:09;101373.59;;;20.43;73.84
55291;BME280;41155;39.768;2.712;2023-05-10T00:19:34;101379.97;;;20.05;75.04
55291;BME280;41155;39.768;2.712;2023-05-10T00:22:00;101376.66;;;19.90;75.29
55291;BME280;41155;39.768;2.712;2023-05-10T00:24:25;101368.47;;;20.03;72.35
55291;BME280;41155;39.768;2.712;2023-05-10T00:26:51;101327.84;;;19.73;71.09
55291;BME280;41155;39.768;2.712;2023-05-10T00:29:16;101346.13;;;19.96;71.50
55291;BME280;41155;39.768;2.712;2023-05-10T00:31:42;101373.22;;;20.17;70.77
55291;BME280;41155;39.768;2.712;2023-05-10T00:34:07;101377.97;;;20.11;71.90
55291;BME280;41155;39.768;2.712;2023-05-10T00:36:33;101376.56;;;20.14;66.88
55291;BME280;41155;39.768;2.712;2023-05-10T00:38:58;101374.78;;;20.04;69.95
55291;BME280;41155;39.768;2.712;2023-05-10T00:41:24;101374.50;;;20.05;71.40
55291;BME280;41155;39.768;2.712;2023-05-10T00:43:49;101370.69;;;20.01;70.01
55291;BME280;41155;39.768;2.712;2023-05-10T00:46:15;101364.41;;;20.01;67.56
55291;BME280;41155;39.768;2.712;2023-05-10T00:48:42;101362.66;;;19.91;65.55
55291;BME280;41155;39.768;2.712;2023-05-10T00:51:08;101379.53;;;19.98;65.15
55291;BME280;41155;39.768;2.712;2023-05-10T00:53:34;101385.06;;;20.12;63.75
55291;BME280;41155;39.768;2.712;2023-05-10T00:56:00;101384.66;;;20.19;63.75
55291;BME280;41155;39.768;2.712;2023-05-10T00:58:27;101372.81;;;20.23;63.83
55291;BME280;41155;39.768;2.712;2023-05-10T01:00:55;101378.47;;;20.13;63.72
55291;BME280;41155;39.768;2.712;2023-05-10T01:03:22;101375.44;;;20.15;62.06
55291;BME280;41155;39.768;2.712;2023-05-10T01:05:47;101376.25;;;20.15;61.02
55291;BME280;41155;39.768;2.712;2023-05-10T01:08:13;101380.44;;;20.26;61.03
55291;BME280;41155;39.768;2.712;2023-05-10T01:10:39;101365.78;;;20.17;60.38
55291;BME280;41155;39.768;2.712;2023-05-10T01:13:05;101382.16;;;20.22;59.75
55291;BME280;41155;39.768;2.712;2023-05-10T01:15:31;101385.94;;;20.26;58.87
55291;BME280;41155;39.768;2.712;2023-05-10T01:17:57;101374.06;;;20.31;57.69
55291;BME280;41155;39.768;2.712;2023-05-10T01:20:23;101380.22;;;20.23;57.68
55291;BME280;41155;39.768;2.712;2023-05-10T01:33:56;101371.81;;;20.33;55.65
55291;BME280;41155;39.768;2.712;2023-05-10T01:36:57;101371.94;;;20.42;54.29
55291;BME280;41155;39.768;2.712;2023-05-10T01:39:24;101375.16;;;20.30;53.45
55291;BME280;41155;39.768;2.712;2023-05-10T01:41:52;101377.41;;;20.28;53.67
55291;BME280;41155;39.768;2.712;2023-05-10T01:44:43;101373.97;;;20.36;52.89
55291;BME280;41155;39.768;2.712;2023-05-10T01:47:15;101360.34;;;20.31;52.91
55291;BME280;41155;39.768;2.712;2023-05-10T01:49:44;101375.28;;;20.39;52.38
55291;BME280;41155;39.768;2.712;2023-05-10T01:52:22;101369.00;;;20.38;53.08
55291;BME280;41155;39.768;2.712;2023-05-10T01:55:13;101381.84;;;20.57;52.06
55291;BME280;41155;39.768;2.712;2023-05-10T01:57:42;101364.63;;;20.37;52.79
55291;BME280;41155;39.768;2.712;2023-05-10T02:00:09;101372.19;;;20.45;52.17
55291;BME280;41155;39.768;2.712;2023-05-10T02:02:41;101372.53;;;20.39;52.84
55291;BME280;41155;39.768;2.712;2023-05-10T02:05:08;101378.41;;;20.65;51.40
55291;BME280;41155;39.768;2.712;2023-05-10T02:07:36;101359.88;;;20.43;50.89
55291;BME280;41155;39.768;2.712;2023-05-10T02:10:06;101367.38;;;20.37;50.91
55291;BME280;41155;39.768;2.712;2023-05-10T02:12:39;101377.88;;;20.49;50.56
55291;BME280;41155;39.768;2.712;2023-05-10T02:15:07;101363.91;;;20.31;50.45
55291;BME280;41155;39.768;2.712;2023-05-10T02:17:35;101377.63;;;20.31;51.13
55291;BME280;41155;39.768;2.712;2023-05-10T02:20:01;101386.78;;;20.41;50.78
55291;BME280;41155;39.768;2.712;2023-05-10T02:22:29;101385.53;;;20.33;50.72
55291;BME280;41155;39.768;2.712;2023-05-10T02:24:58;101375.81;;;20.41;50.91
55291;BME280;41155;39.768;2.712;2023-05-10T02:27:25;101387.38;;;20.38;50.30
55291;BME280;41155;39.768;2.712;2023-05-10T02:29:53;101374.34;;;20.29;50.29
55291;BME280;41155;39.768;2.712;2023-05-10T02:32:21;101374.56;;;20.33;49.13
55291;BME280;41155;39.768;2.712;2023-05-10T02:34:47;101392.78;;;20.43;49.23
55291;BME280;41155;39.768;2.712;2023-05-10T02:37:18;101374.78;;;20.37;49.07
55291;BME280;41155;39.768;2.712;2023-05-10T02:39:47;101380.84;;;20.33;48.62
55291;BME280;41155;39.768;2.712;2023-05-10T02:42:16;101384.31;;;20.39;48.06
55291;BME280;41155;39.768;2.712;2023-05-10T02:44:45;101380.47;;;20.40;47.44
55291;BME280;41155;39.768;2.712;2023-05-10T02:47:13;101386.84;;;20.54;47.44
55291;BME280;41155;39.768;2.712;2023-05-10T02:49:38;101385.13;;;20.59;46.87
55291;BME280;41155;39.768;2.712;2023-05-10T02:52:05;101397.22;;;20.58;46.62
55291;BME280;41155;39.768;2.712;2023-05-10T02:54:39;101388.78;;;20.68;46.73
55291;BME280;41155;39.768;2.712;2023-05-10T02:57:08;101392.56;;;20.72;46.65
55291;BME280;41155;39.768;2.712;2023-05-10T02:59:36;101380.66;;;20.63;45.92
55291;BME280;41155;39.768;2.712;2023-05-10T03:02:02;101392.16;;;20.79;45.64
55291;BME280;41155;39.768;2.712;2023-05-10T03:04:31;101393.41;;;20.86;45.93
55291;BME280;41155;39.768;2.712;2023-05-10T03:06:57;101393.78;;;20.93;46.18
55291;BME280;41155;39.768;2.712;2023-05-10T03:09:22;101394.22;;;21.01;45.79
55291;BME280;41155;39.768;2.712;2023-05-10T03:12:07;101347.25;;;20.74;45.73
55291;BME280;41155;39.768;2.712;2023-05-10T03:17:25;101380.34;;;21.06;45.77
55291;BME280;41155;39.768;2.712;2023-05-10T03:19:58;101383.53;;;21.13;43.77
55291;BME280;41155;39.768;2.712;2023-05-10T03:22:26;101389.72;;;21.05;44.62
55291;BME280;41155;39.768;2.712;2023-05-10T03:24:55;101383.44;;;21.18;44.77
55291;BME280;41155;39.768;2.712;2023-05-10T03:27:23;101349.53;;;21.09;45.80
55291;BME280;41155;39.768;2.712;2023-05-10T03:29:51;101370.00;;;21.16;45.61
55291;BME280;41155;39.768;2.712;2023-05-10T03:32:17;101347.50;;;21.14;45.58
55291;BME280;41155;39.768;2.712;2023-05-10T03:34:46;101360.44;;;21.14;43.23
55291;BME280;41155;39.768;2.712;2023-05-10T03:37:11;101362.88;;;21.15;44.22
55291;BME280;41155;39.768;2.712;2023-05-10T03:39:37;101368.47;;;21.24;43.58
55291;BME280;41155;39.768;2.712;2023-05-10T03:42:02;101366.44;;;21.16;43.28
55291;BME280;41155;39.768;2.712;2023-05-10T03:44:28;101363.69;;;21.16;43.12
55291;BME280;41155;39.768;2.712;2023-05-10T03:46:53;101362.03;;;21.29;41.13
55291;BME280;41155;39.768;2.712;2023-05-10T03:49:19;101370.69;;;21.22;41.50
55291;BME280;41155;39.768;2.712;2023-05-10T03:51:44;101351.69;;;21.12;41.88
55291;BME280;41155;39.768;2.712;2023-05-10T03:54:10;101342.84;;;21.15;42.00
55291;BME280;41155;39.768;2.712;2023-05-10T03:56:35;101336.66;;;21.09;41.38
55291;BME280;41155;39.768;2.712;2023-05-10T03:59:01;101349.63;;;21.17;41.83
55291;BME280;41155;39.768;2.712;2023-05-10T04:01:26;101361.84;;;21.11;41.87
55291;BME280;41155;39.768;2.712;2023-05-10T04:03:52;101360.84;;;21.07;42.26
55291;BME280;41155;39.768;2.712;2023-05-10T04:06:17;101356.16;;;21.08;42.39
55291;BME280;41155;39.768;2.712;2023-05-10T04:08:43;101356.78;;;21.05;42.62
55291;BME280;41155;39.768;2.712;2023-05-10T04:11:09;101352.09;;;21.05;43.17
55291;BME280;41155;39.768;2.712;2023-05-10T04:13:35;101351.28;;;21.05;43.15
55291;BME280;41155;39.768;2.712;2023-05-10T04:16:02;101352.91;;;21.06;43.50
55291;BME280;41155;39.768;2.712;2023-05-10T04:18:27;101341.00;;;21.10;43.37
55291;BME280;41155;39.768;2.712;2023-05-10T04:20:53;101349.44;;;21.00;43.70
55291;BME280;41155;39.768;2.712;2023-05-10T04:23:18;101344.59;;;20.83;43.54
55291;BME280;41155;39.768;2.712;2023-05-10T04:25:44;101348.97;;;20.84;43.13
55291;BME280;41155;39.768;2.712;2023-05-10T04:28:09;101313.09;;;20.67;43.75
55291;BME280;41155;39.768;2.712;2023-05-10T04:30:35;101349.66;;;21.04;43.49
55291;BME280;41155;39.768;2.712;2023-05-10T04:33:01;101356.78;;;21.05;43.62
55291;BME280;41155;39.768;2.712;2023-05-10T04:35:29;101353.94;;;21.10;42.12
55291;BME280;41155;39.768;2.712;2023-05-10T04:37:55;101353.59;;;21.11;42.94
55291;BME280;41155;39.768;2.712;2023-05-10T04:40:21;101353.13;;;21.09;44.17
55291;BME280;41155;39.768;2.712;2023-05-10T04:42:47;101367.84;;;21.13;44.30
55291;BME280;41155;39.768;2.712;2023-05-10T04:45:12;101362.78;;;21.07;45.02
55291;BME280;41155;39.768;2.712;2023-05-10T04:47:40;101370.31;;;21.15;44.56
55291;BME280;41155;39.768;2.712;2023-05-10T04:50:06;101326.69;;;20.86;44.49
55291;BME280;41155;39.768;2.712;2023-05-10T04:52:31;101370.19;;;21.20;44.34
55291;BME280;41155;39.768;2.712;2023-05-10T04:54:57;101377.50;;;21.25;45.30
55291;BME280;41155;39.768;2.712;2023-05-10T04:57:22;101382.38;;;21.28;45.95
55291;BME280;41155;39.768;2.712;2023-05-10T04:59:48;101384.75;;;21.20;46.67
55291;BME280;41155;39.768;2.712;2023-05-10T05:02:13;101387.16;;;21.22;46.55
55291;BME280;41155;39.768;2.712;2023-05-10T05:04:39;101392.66;;;21.22;46.72
55291;BME280;41155;39.768;2.712;2023-05-10T05:07:04;101377.31;;;21.21;46.07
55291;BME280;41155;39.768;2.712;2023-05-10T05:09:30;101397.97;;;21.32;46.27
55291;BME280;41155;39.768;2.712;2023-05-10T05:11:57;101377.84;;;21.09;47.53
55291;BME280;41155;39.768;2.712;2023-05-10T05:14:23;101400.91;;;21.08;46.32
55291;BME280;41155;39.768;2.712;2023-05-10T05:16:51;101402.44;;;21.14;46.95
55291;BME280;41155;39.768;2.712;2023-05-10T05:19:16;101406.50;;;21.17;46.51
55291;BME280;41155;39.768;2.712;2023-05-10T05:21:42;101411.38;;;21.20;46.77
55291;BME280;41155;39.768;2.712;2023-05-10T05:24:07;101408.25;;;21.13;47.57
55291;BME280;41155;39.768;2.712;2023-05-10T05:26:33;101405.78;;;21.11;47.67
55291;BME280;41155;39.768;2.712;2023-05-10T05:28:58;101414.44;;;21.05;47.47
55291;BME280;41155;39.768;2.712;2023-05-10T05:31:24;101413.00;;;20.93;46.57
55291;BME280;41155;39.768;2.712;2023-05-10T05:33:49;101400.31;;;20.84;45.38
55291;BME280;41155;39.768;2.712;2023-05-10T05:36:15;101409.03;;;20.72;45.79
55291;BME280;41155;39.768;2.712;2023-05-10T05:38:40;101396.44;;;20.85;46.46
55291;BME280;41155;39.768;2.712;2023-05-10T05:41:06;101364.69;;;20.65;47.03
55291;BME280;41155;39.768;2.712;2023-05-10T05:43:31;101396.75;;;20.83;46.18
55291;BME280;41155;39.768;2.712;2023-05-10T05:45:57;101400.56;;;20.54;46.86
55291;BME280;41155;39.768;2.712;2023-05-10T05:48:23;101411.66;;;20.77;46.35
55291;BME280;41155;39.768;2.712;2023-05-10T05:50:49;101416.66;;;20.75;46.15
55291;BME280;41155;39.768;2.712;2023-05-10T05:53:14;101411.44;;;20.73;45.79
55291;BME280;41155;39.768;2.712;2023-05-10T05:55:50;101417.06;;;20.96;45.60
55291;BME280;41155;39.768;2.712;2023-05-10T05:58:15;101409.66;;;21.10;45.80
55291;BME280;41155;39.768;2.712;2023-05-10T06:00:41;101415.53;;;21.17;46.09
55291;BME280;41155;39.768;2.712;2023-05-10T06:03:06;101419.41;;;21.30;46.44
55291;BME280;41155;39.768;2.712;2023-05-10T06:05:32;101433.25;;;21.53;46.60
55291;BME280;41155;39.768;2.712;2023-05-10T06:07:59;101431.84;;;21.55;47.23
55291;BME280;41155;39.768;2.712;2023-05-10T06:10:25;101439.47;;;21.44;47.00
55291;BME280;41155;39.768;2.712;2023-05-10T06:12:51;101427.78;;;21.53;46.95
55291;BME280;41155;39.768;2.712;2023-05-10T06:15:16;101432.25;;;21.49;46.87
55291;BME280;41155;39.768;2.712;2023-05-10T06:17:42;101434.88;;;21.54;45.95
55291;BME280;41155;39.768;2.712;2023-05-10T06:20:08;101434.59;;;21.41;47.05
55291;BME280;41155;39.768;2.712;2023-05-10T06:22:34;101442.94;;;21.36;46.97
55291;BME280;41155;39.768;2.712;2023-05-10T06:25:00;101428.38;;;21.22;47.03
55291;BME280;41155;39.768;2.712;2023-05-10T06:27:25;101446.56;;;21.32;46.83
55291;BME280;41155;39.768;2.712;2023-05-10T06:29:53;101443.63;;;21.28;46.38
55291;BME280;41155;39.768;2.712;2023-05-10T06:32:19;101436.50;;;21.27;47.28
55291;BME280;41155;39.768;2.712;2023-05-10T06:34:44;101394.41;;;21.18;47.66
55291;BME280;41155;39.768;2.712;2023-05-10T06:37:10;101431.41;;;21.34;47.26
55291;BME280;41155;39.768;2.712;2023-05-10T06:39:35;101440.34;;;21.26;47.33
55291;BME280;41155;39.768;2.712;2023-05-10T06:42:01;101434.28;;;21.15;47.90
55291;BME280;41155;39.768;2.712;2023-05-10T06:44:27;101438.84;;;21.20;47.96
55291;BME280;41155;39.768;2.712;2023-05-10T06:46:53;101425.53;;;21.27;48.16
55291;BME280;41155;39.768;2.712;2023-05-10T06:49:20;101431.34;;;21.39;46.71
55291;BME280;41155;39.768;2.712;2023-05-10T06:51:45;101427.25;;;21.51;45.99
55291;BME280;41155;39.768;2.712;2023-05-10T06:54:11;101432.81;;;21.73;46.22
55291;BME280;41155;39.768;2.712;2023-05-10T06:56:36;101429.50;;;21.49;45.38
55291;BME280;41155;39.768;2.712;2023-05-10T06:59:02;101437.25;;;21.47;46.30
55291;BME280;41155;39.768;2.712;2023-05-10T07:01:28;101433.97;;;21.58;46.41
55291;BME280;41155;39.768;2.712;2023-05-10T07:03:53;101410.25;;;21.49;46.46
55291;BME280;41155;39.768;2.712;2023-05-10T07:06:19;101443.75;;;21.51;47.36
55291;BME280;41155;39.768;2.712;2023-05-10T07:08:45;101458.72;;;21.44;47.45
55291;BME280;41155;39.768;2.712;2023-05-10T07:11:10;101474.03;;;21.18;48.05
55291;BME280;41155;39.768;2.712;2023-05-10T07:13:36;101482.91;;;21.15;49.19
55291;BME280;41155;39.768;2.712;2023-05-10T07:16:03;101465.25;;;20.88;50.62
55291;BME280;41155;39.768;2.712;2023-05-10T07:18:29;101481.00;;;20.83;50.87
55291;BME280;41155;39.768;2.712;2023-05-10T07:20:54;101488.75;;;20.94;50.66
55291;BME280;41155;39.768;2.712;2023-05-10T07:23:20;101471.47;;;20.94;50.59
55291;BME280;41155;39.768;2.712;2023-05-10T07:25:46;101490.75;;;21.49;49.43
55291;BME280;41155;39.768;2.712;2023-05-10T07:28:13;101479.78;;;21.99;47.70
55291;BME280;41155;39.768;2.712;2023-05-10T07:30:39;101466.47;;;22.29;46.12
55291;BME280;41155;39.768;2.712;2023-05-10T07:33:05;101496.56;;;22.48;46.66
55291;BME280;41155;39.768;2.712;2023-05-10T07:35:30;101497.56;;;22.52;48.48
55291;BME280;41155;39.768;2.712;2023-05-10T07:37:56;101507.44;;;22.17;52.95
55291;BME280;41155;39.768;2.712;2023-05-10T07:40:21;101507.47;;;22.03;54.27
55291;BME280;41155;39.768;2.712;2023-05-10T07:42:47;101520.78;;;21.73;56.29
55291;BME280;41155;39.768;2.712;2023-05-10T07:45:12;101535.03;;;21.61;56.64
55291;BME280;41155;39.768;2.712;2023-05-10T07:47:38;101542.03;;;21.54;57.09
55291;BME280;41155;39.768;2.712;2023-05-10T07:50:03;101509.97;;;21.35;56.68
55291;BME280;41155;39.768;2.712;2023-05-10T07:52:29;101555.97;;;21.57;56.47
55291;BME280;41155;39.768;2.712;2023-05-10T07:54:55;101557.19;;;21.37;56.91
55291;BME280;41155;39.768;2.712;2023-05-10T07:57:22;101548.94;;;21.37;56.73
55291;BME280;41155;39.768;2.712;2023-05-10T07:59:47;101556.06;;;21.52;55.74
55291;BME280;41155;39.768;2.712;2023-05-10T08:02:13;101560.66;;;21.57;55.75
55291;BME280;41155;39.768;2.712;2023-05-10T08:04:38;101561.28;;;21.54;55.45
55291;BME280;41155;39.768;2.712;2023-05-10T08:07:03;101560.47;;;21.53;55.08
55291;BME280;41155;39.768;2.712;2023-05-10T08:09:29;101533.59;;;21.36;54.88
55291;BME280;41155;39.768;2.712;2023-05-10T08:11:55;101560.97;;;21.41;55.35
55291;BME280;41155;39.768;2.712;2023-05-10T08:14:20;101565.03;;;21.44;55.49
55291;BME280;41155;39.768;2.712;2023-05-10T08:16:46;101559.31;;;21.40;55.03
55291;BME280;41155;39.768;2.712;2023-05-10T08:19:11;101570.09;;;21.37;55.25
55291;BME280;41155;39.768;2.712;2023-05-10T08:21:37;101573.94;;;21.36;55.74
55291;BME280;41155;39.768;2.712;2023-05-10T08:24:03;101559.84;;;21.42;55.02
55291;BME280;41155;39.768;2.712;2023-05-10T08:26:29;101566.38;;;21.47;55.20
55291;BME280;41155;39.768;2.712;2023-05-10T08:28:54;101566.69;;;21.59;55.16
55291;BME280;41155;39.768;2.712;2023-05-10T08:31:20;101561.47;;;21.57;54.82
55291;BME280;41155;39.768;2.712;2023-05-10T08:33:45;101571.47;;;21.53;55.37
55291;BME280;41155;39.768;2.712;2023-05-10T08:36:11;101567.28;;;21.56;55.17
55291;BME280;41155;39.768;2.712;2023-05-10T08:38:39;101579.28;;;21.60;54.80
55291;BME280;41155;39.768;2.712;2023-05-10T08:41:05;101573.69;;;21.65;54.46
55291;BME280;41155;39.768;2.712;2023-05-10T08:43:31;101574.41;;;21.57;54.21
55291;BME280;41155;39.768;2.712;2023-05-10T08:46:00;101565.53;;;21.46;54.36
55291;BME280;41155;39.768;2.712;2023-05-10T08:48:26;101582.25;;;21.50;54.33
55291;BME280;41155;39.768;2.712;2023-05-10T08:50:53;101591.50;;;21.54;54.53
55291;BME280;41155;39.768;2.712;2023-05-10T08:53:24;101592.09;;;21.37;56.10
55291;BME280;41155;39.768;2.712;2023-05-10T08:55:52;101602.47;;;21.40;55.93
55291;BME280;41155;39.768;2.712;2023-05-10T08:58:19;101593.34;;;21.26;56.15
55291;BME280;41155;39.768;2.712;2023-05-10T09:00:45;101595.94;;;21.36;55.41
55291;BME280;41155;39.768;2.712;2023-05-10T09:03:12;101605.16;;;21.26;56.11
55291;BME280;41155;39.768;2.712;2023-05-10T09:05:38;101600.91;;;21.34;54.26
55291;BME280;41155;39.768;2.712;2023-05-10T09:08:04;101598.09;;;21.39;54.01
55291;BME280;41155;39.768;2.712;2023-05-10T09:10:31;101567.78;;;21.11;54.42
55291;BME280;41155;39.768;2.712;2023-05-10T09:12:57;101605.22;;;21.40;54.07
55291;BME280;41155;39.768;2.712;2023-05-10T09:15:23;101608.56;;;21.37;53.62
55291;BME280;41155;39.768;2.712;2023-05-10T09:17:49;101603.84;;;21.24;54.02
55291;BME280;41155;39.768;2.712;2023-05-10T09:20:15;101622.75;;;21.25;54.14
55291;BME280;41155;39.768;2.712;2023-05-10T09:22:42;101598.38;;;21.05;54.08
55291;BME280;41155;39.768;2.712;2023-05-10T09:25:10;101619.25;;;21.38;52.60
55291;BME280;41155;39.768;2.712;2023-05-10T09:27:40;101613.38;;;21.26;52.55
55291;BME280;41155;39.768;2.712;2023-05-10T09:30:06;101627.56;;;21.33;52.76
55291;BME280;41155;39.768;2.712;2023-05-10T09:32:45;101629.50;;;21.33;52.03
55291;BME280;41155;39.768;2.712;2023-05-10T09:35:16;101637.38;;;21.39;52.13
55291;BME280;41155;39.768;2.712;2023-05-10T09:37:44;101638.50;;;21.38;51.73
55291;BME280;41155;39.768;2.712;2023-05-10T09:40:13;101631.88;;;21.39;51.67
55291;BME280;41155;39.768;2.712;2023-05-10T09:42:41;101639.53;;;21.56;51.75
55291;BME280;41155;39.768;2.712;2023-05-10T09:45:07;101621.72;;;21.54;51.30
55291;BME280;41155;39.768;2.712;2023-05-10T09:47:36;101634.78;;;21.62;50.99
55291;BME280;41155;39.768;2.712;2023-05-10T09:50:03;101632.44;;;21.55;50.78
55291;BME280;41155;39.768;2.712;2023-05-10T09:52:30;101635.88;;;21.75;50.24
55291;BME280;41155;39.768;2.712;2023-05-10T09:54:56;101635.00;;;21.79;50.46
55291;BME280;41155;39.768;2.712;2023-05-10T09:57:22;101634.78;;;21.89;49.88
55291;BME280;41155;39.768;2.712;2023-05-10T09:59:48;101635.72;;;21.85;49.30
55291;BME280;41155;39.768;2.712;2023-05-10T10:02:15;101634.78;;;21.89;48.85
55291;BME280;41155;39.768;2.712;2023-05-10T10:04:41;101627.03;;;21.92;48.99
55291;BME280;41155;39.768;2.712;2023-05-10T10:07:07;101619.31;;;21.94;48.66
55291;BME280;41155;39.768;2.712;2023-05-10T10:09:34;101623.78;;;21.89;47.60
55291;BME280;41155;39.768;2.712;2023-05-10T10:12:01;101627.75;;;21.97;47.02
55291;BME280;41155;39.768;2.712;2023-05-10T10:14:27;101592.13;;;21.32;47.51
55291;BME280;41155;39.768;2.712;2023-05-10T10:16:53;101615.13;;;21.69;47.99
55291;BME280;41155;39.768;2.712;2023-05-10T10:19:19;101601.47;;;21.50;47.39
55291;BME280;41155;39.768;2.712;2023-05-10T10:21:46;101570.03;;;21.56;46.71
55291;BME280;41155;39.768;2.712;2023-05-10T10:24:12;101606.47;;;21.89;47.31
55291;BME280;41155;39.768;2.712;2023-05-10T10:26:37;101607.28;;;21.89;46.21
55291;BME280;41155;39.768;2.712;2023-05-10T10:31:46;101610.94;;;22.26;46.86
55291;BME280;41155;39.768;2.712;2023-05-10T10:34:25;101612.47;;;22.32;46.08
55291;BME280;41155;39.768;2.712;2023-05-10T10:36:53;101569.41;;;22.00;45.74
55291;BME280;41155;39.768;2.712;2023-05-10T10:39:20;101613.28;;;22.05;45.99
55291;BME280;41155;39.768;2.712;2023-05-10T10:41:56;101615.03;;;21.87;46.54
55291;BME280;41155;39.768;2.712;2023-05-10T10:49:50;101615.44;;;22.08;46.09
55291;BME280;41155;39.768;2.712;2023-05-10T10:52:27;101596.06;;;22.14;46.00
55291;BME280;41155;39.768;2.712;2023-05-10T10:57:27;101606.31;;;22.49;44.92
55291;BME280;41155;39.768;2.712;2023-05-10T11:02:46;101590.19;;;22.20;44.79
55291;BME280;41155;39.768;2.712;2023-05-10T11:07:56;101580.72;;;22.49;44.14
55291;BME280;41155;39.768;2.712;2023-05-10T11:10:23;101598.19;;;22.67;43.47
55291;BME280;41155;39.768;2.712;2023-05-10T11:15:38;101584.22;;;22.41;41.50
55291;BME280;41155;39.768;2.712;2023-05-10T11:18:25;101579.56;;;22.64;41.93
55291;BME280;41155;39.768;2.712;2023-05-10T11:21:01;101571.97;;;23.06;42.25
55291;BME280;41155;39.768;2.712;2023-05-10T11:23:54;101556.72;;;23.39;41.40
55291;BME280;41155;39.768;2.712;2023-05-10T11:26:24;101563.22;;;23.83;39.14
55291;BME280;41155;39.768;2.712;2023-05-10T11:28:54;101556.50;;;24.16;37.89
55291;BME280;41155;39.768;2.712;2023-05-10T11:31:25;101534.72;;;24.23;37.59
55291;BME280;41155;39.768;2.712;2023-05-10T11:33:53;101555.69;;;24.58;36.81
55291;BME280;41155;39.768;2.712;2023-05-10T11:36:24;101533.59;;;24.67;34.40
55291;BME280;41155;39.768;2.712;2023-05-10T11:38:50;101561.16;;;24.93;34.16
55291;BME280;41155;39.768;2.712;2023-05-10T11:41:18;101510.06;;;24.52;33.10
55291;BME280;41155;39.768;2.712;2023-05-10T11:43:46;101533.22;;;24.95;33.29
55291;BME280;41155;39.768;2.712;2023-05-10T11:46:13;101538.38;;;25.14;32.52
55291;BME280;41155;39.768;2.712;2023-05-10T11:48:40;101530.94;;;25.14;31.68
55291;BME280;41155;39.768;2.712;2023-05-10T11:51:09;101526.88;;;25.03;31.67
55291;BME280;41155;39.768;2.712;2023-05-10T11:53:35;101539.69;;;25.16;32.38
55291;BME280;41155;39.768;2.712;2023-05-10T11:56:07;101532.31;;;25.38;33.35
55291;BME280;41155;39.768;2.712;2023-05-10T11:58:33;101531.59;;;25.50;33.41
55291;BME280;41155;39.768;2.712;2023-05-10T12:01:00;101521.88;;;25.43;32.73
55291;BME280;41155;39.768;2.712;2023-05-10T12:03:26;101513.88;;;25.03;31.96
55291;BME280;41155;39.768;2.712;2023-05-10T12:05:53;101532.00;;;24.57;30.95
55291;BME280;41155;39.768;2.712;2023-05-10T12:08:23;101516.06;;;24.20;31.61
55291;BME280;41155;39.768;2.712;2023-05-10T12:10:49;101523.53;;;24.10;31.09
55291;BME280;41155;39.768;2.712;2023-05-10T12:13:14;101530.03;;;24.32;31.81
55291;BME280;41155;39.768;2.712;2023-05-10T12:15:41;101515.56;;;24.09;32.22
55291;BME280;41155;39.768;2.712;2023-05-10T12:18:12;101526.59;;;24.18;32.05
55291;BME280;41155;39.768;2.712;2023-05-10T12:20:38;101522.53;;;24.06;32.04
55291;BME280;41155;39.768;2.712;2023-05-10T12:23:04;101529.38;;;24.26;30.85
55291;BME280;41155;39.768;2.712;2023-05-10T12:25:34;101518.66;;;24.25;30.94
55291;BME280;41155;39.768;2.712;2023-05-10T12:28:03;101517.03;;;24.32;30.63
55291;BME280;41155;39.768;2.712;2023-05-10T12:30:31;101527.75;;;24.25;31.00
55291;BME280;41155;39.768;2.712;2023-05-10T12:35:33;101526.06;;;23.89;32.50
55291;BME280;41155;39.768;2.712;2023-05-10T12:38:35;101530.19;;;23.52;31.87
55291;BME280;41155;39.768;2.712;2023-05-10T12:41:07;101542.53;;;23.63;32.56
55291;BME280;41155;39.768;2.712;2023-05-10T12:43:33;101533.66;;;23.66;32.63
55291;BME280;41155;39.768;2.712;2023-05-10T12:46:10;101525.13;;;23.45;31.81
55291;BME280;41155;39.768;2.712;2023-05-10T12:48:37;101521.00;;;23.26;31.76
55291;BME280;41155;39.768;2.712;2023-05-10T12:51:03;101525.84;;;23.29;31.72
55291;BME280;41155;39.768;2.712;2023-05-10T12:53:29;101525.25;;;23.32;32.00
55291;BME280;41155;39.768;2.712;2023-05-10T12:55:55;101522.56;;;23.49;31.62
55291;BME280;41155;39.768;2.712;2023-05-10T12:58:20;101484.56;;;23.37;31.91
55291;BME280;41155;39.768;2.712;2023-05-10T13:00:46;101529.75;;;23.67;32.05
55291;BME280;41155;39.768;2.712;2023-05-10T13:03:12;101503.94;;;23.63;31.07
55291;BME280;41155;39.768;2.712;2023-05-10T13:05:37;101518.44;;;23.86;30.81
55291;BME280;41155;39.768;2.712;2023-05-10T13:08:03;101506.44;;;23.74;29.97
55291;BME280;41155;39.768;2.712;2023-05-10T13:10:31;101514.22;;;23.80;30.61
55291;BME280;41155;39.768;2.712;2023-05-10T13:12:58;101519.47;;;24.08;31.43
55291;BME280;41155;39.768;2.712;2023-05-10T13:15:24;101520.78;;;24.36;30.34
55291;BME280;41155;39.768;2.712;2023-05-10T13:17:50;101497.06;;;24.18;30.61
55291;BME280;41155;39.768;2.712;2023-05-10T13:20:15;101508.59;;;24.38;29.92
55291;BME280;41155;39.768;2.712;2023-05-10T13:22:43;101505.03;;;24.37;30.67
55291;BME280;41155;39.768;2.712;2023-05-10T13:25:09;101507.81;;;24.46;30.27